FDX122 MRLB-KMIA
Flight info
| Callsign | FDX122 |
|---|---|
| Flight time | 2h 25m |
| Altitude | 34000 |
| Route | LISPA1V LISPA UA502 MGA UM328 TIBUT/N0466F360 UM328 SELEK UL345 FUNKO/N0461F350 |
| Aircraft | B738/M-SDE2E3FGHIRWXY/LB1 |
Departure
| Time | 2026-05-04 23:59 |
|---|---|
| Airport | Daniel Oduber Quirós International Airport (MRLB) |
Arrival
| Time | 2026-05-05 02:25 |
|---|---|
| Airport | Miami International Airport (KMIA) |
| Time | Latitude | Longitude | Altitude | Speed | Heading |
|---|---|---|---|---|---|
| 2026-05-04 23:37 | 10.59920 | -85.53779 | 276 ft | 0 kts | 343° |
| 2026-05-04 23:53 | 10.59914 | -85.53777 | 276 ft | 2 kts | 343° |
| 2026-05-04 23:53 | 10.59898 | -85.53774 | 278 ft | 3 kts | 3° |
| 2026-05-04 23:54 | 10.59880 | -85.53778 | 278 ft | 3 kts | 26° |
| 2026-05-04 23:54 | 10.59865 | -85.53788 | 280 ft | 3 kts | 49° |
| 2026-05-04 23:54 | 10.59863 | -85.53790 | 281 ft | 0 kts | 52° |
| 2026-05-04 23:56 | 10.59867 | -85.53770 | 281 ft | 8 kts | 84° |
| 2026-05-04 23:57 | 10.59868 | -85.53699 | 277 ft | 11 kts | 97° |
| 2026-05-04 23:57 | 10.59866 | -85.53615 | 281 ft | 14 kts | 75° |
| 2026-05-04 23:57 | 10.59898 | -85.53525 | 277 ft | 13 kts | 69° |
| 2026-05-04 23:57 | 10.59930 | -85.53438 | 274 ft | 13 kts | 71° |
| 2026-05-04 23:58 | 10.59936 | -85.53352 | 275 ft | 13 kts | 124° |
| 2026-05-04 23:58 | 10.59855 | -85.53317 | 275 ft | 13 kts | 162° |
| 2026-05-04 23:58 | 10.59769 | -85.53300 | 275 ft | 13 kts | 198° |
| 2026-05-04 23:58 | 10.59723 | -85.53385 | 275 ft | 21 kts | 250° |
| 2026-05-04 23:59 | 10.59590 | -85.53758 | 275 ft | 92 kts | 250° |
| 2026-05-04 23:59 | 10.59293 | -85.54578 | 262 ft | 153 kts | 250° |
| 2026-05-04 23:59 | 10.58887 | -85.55672 | 754 ft | 166 kts | 251° |
| 2026-05-04 23:59 | 10.58485 | -85.56799 | 1403 ft | 179 kts | 250° |
| 2026-05-05 00:00 | 10.58062 | -85.58005 | 2035 ft | 186 kts | 249° |
| 2026-05-05 00:00 | 10.57910 | -85.58433 | 2180 ft | 194 kts | 249° |
| 2026-05-05 00:00 | 10.57047 | -85.60846 | 2600 ft | 240 kts | 249° |
| 2026-05-05 00:00 | 10.56454 | -85.62493 | 2994 ft | 253 kts | 249° |
| 2026-05-05 00:01 | 10.55894 | -85.64217 | 3622 ft | 259 kts | 262° |
| 2026-05-05 00:01 | 10.56048 | -85.66026 | 4379 ft | 261 kts | 293° |
| 2026-05-05 00:01 | 10.57068 | -85.67519 | 5037 ft | 261 kts | 324° |
| 2026-05-05 00:01 | 10.58673 | -85.68297 | 5819 ft | 253 kts | 354° |
| 2026-05-05 00:02 | 10.60383 | -85.68195 | 6574 ft | 247 kts | 22° |
| 2026-05-05 00:02 | 10.61840 | -85.67300 | 7211 ft | 248 kts | 47° |
| 2026-05-05 00:02 | 10.62823 | -85.65854 | 7900 ft | 250 kts | 65° |
| 2026-05-05 00:02 | 10.63535 | -85.64218 | 8536 ft | 256 kts | 68° |
| 2026-05-05 00:03 | 10.64215 | -85.62534 | 9239 ft | 258 kts | 69° |
| 2026-05-05 00:03 | 10.64908 | -85.60844 | 9962 ft | 261 kts | 68° |
| 2026-05-05 00:03 | 10.65626 | -85.59124 | 10591 ft | 266 kts | 68° |
| 2026-05-05 00:03 | 10.66359 | -85.57389 | 11232 ft | 269 kts | 67° |
| 2026-05-05 00:04 | 10.67174 | -85.55665 | 11894 ft | 272 kts | 55° |
| 2026-05-05 00:04 | 10.68584 | -85.54369 | 12522 ft | 279 kts | 29° |
| 2026-05-05 00:04 | 10.70496 | -85.53778 | 12761 ft | 302 kts | 6° |
| 2026-05-05 00:04 | 10.72636 | -85.53647 | 12938 ft | 323 kts | 3° |
| 2026-05-05 00:05 | 10.74958 | -85.53574 | 13087 ft | 343 kts | 2° |
| 2026-05-05 00:05 | 10.77405 | -85.53504 | 13245 ft | 361 kts | 2° |
| 2026-05-05 00:05 | 10.79959 | -85.53422 | 13649 ft | 370 kts | 2° |
| 2026-05-05 00:05 | 10.82556 | -85.53328 | 14178 ft | 372 kts | 3° |
| 2026-05-05 00:06 | 10.85155 | -85.53225 | 14756 ft | 373 kts | 3° |
| 2026-05-05 00:06 | 10.87762 | -85.53117 | 15286 ft | 376 kts | 4° |
| 2026-05-05 00:06 | 10.90388 | -85.53006 | 15799 ft | 379 kts | 4° |
| 2026-05-05 00:06 | 10.93038 | -85.52894 | 16300 ft | 382 kts | 4° |
| 2026-05-05 00:07 | 10.95709 | -85.52782 | 16832 ft | 385 kts | 4° |
| 2026-05-05 00:07 | 10.98354 | -85.52671 | 17323 ft | 387 kts | 4° |
| 2026-05-05 00:07 | 11.01091 | -85.52556 | 17808 ft | 391 kts | 4° |
| 2026-05-05 00:07 | 11.03782 | -85.52443 | 18272 ft | 393 kts | 4° |
| 2026-05-05 00:08 | 11.06522 | -85.52328 | 18709 ft | 394 kts | 4° |
| 2026-05-05 00:08 | 11.09271 | -85.52213 | 19139 ft | 396 kts | 4° |
| 2026-05-05 00:08 | 11.12038 | -85.52097 | 19516 ft | 399 kts | 4° |
| 2026-05-05 00:08 | 11.14820 | -85.51980 | 19979 ft | 400 kts | 3° |
| 2026-05-05 00:09 | 11.17605 | -85.51861 | 20444 ft | 401 kts | 4° |
| 2026-05-05 00:09 | 11.20394 | -85.51648 | 20788 ft | 404 kts | 6° |
| 2026-05-05 00:09 | 11.23201 | -85.51360 | 21191 ft | 405 kts | 6° |
| 2026-05-05 00:09 | 11.26011 | -85.51060 | 21625 ft | 407 kts | 6° |
| 2026-05-05 00:10 | 11.28837 | -85.50770 | 21977 ft | 409 kts | 5° |
| 2026-05-05 00:10 | 11.31679 | -85.50493 | 22334 ft | 412 kts | 5° |
| 2026-05-05 00:10 | 11.34549 | -85.50221 | 22687 ft | 414 kts | 5° |
| 2026-05-05 00:10 | 11.37423 | -85.50284 | 23003 ft | 416 kts | 348° |
| 2026-05-05 00:11 | 11.40162 | -85.51194 | 23444 ft | 415 kts | 334° |
| 2026-05-05 00:11 | 11.42546 | -85.52807 | 23658 ft | 420 kts | 320° |
| 2026-05-05 00:11 | 11.44759 | -85.54772 | 23905 ft | 423 kts | 319° |
| 2026-05-05 00:11 | 11.46943 | -85.56777 | 24242 ft | 423 kts | 318° |
| 2026-05-05 00:12 | 11.49132 | -85.58800 | 24467 ft | 426 kts | 318° |
| 2026-05-05 00:12 | 11.51335 | -85.60825 | 24790 ft | 426 kts | 319° |
| 2026-05-05 00:12 | 11.53545 | -85.62842 | 25086 ft | 428 kts | 319° |
| 2026-05-05 00:12 | 11.55781 | -85.64869 | 25284 ft | 432 kts | 319° |
| 2026-05-05 00:13 | 11.58035 | -85.66904 | 25574 ft | 433 kts | 319° |
| 2026-05-05 00:13 | 11.59558 | -85.68276 | 25764 ft | 434 kts | 319° |
| 2026-05-05 00:13 | 11.61802 | -85.70295 | 25973 ft | 436 kts | 319° |
| 2026-05-05 00:13 | 11.64083 | -85.72348 | 26248 ft | 438 kts | 319° |
| 2026-05-05 00:14 | 11.66368 | -85.74404 | 26508 ft | 439 kts | 319° |
| 2026-05-05 00:14 | 11.68661 | -85.76468 | 26727 ft | 441 kts | 318° |
| 2026-05-05 00:14 | 11.70969 | -85.78547 | 26977 ft | 442 kts | 318° |
| 2026-05-05 00:14 | 11.73253 | -85.80604 | 27208 ft | 444 kts | 318° |
| 2026-05-05 00:15 | 11.75607 | -85.82725 | 27393 ft | 447 kts | 318° |
| 2026-05-05 00:15 | 11.77936 | -85.84824 | 27686 ft | 447 kts | 318° |
| 2026-05-05 00:15 | 11.80267 | -85.86926 | 27908 ft | 448 kts | 318° |
| 2026-05-05 00:15 | 11.82613 | -85.89041 | 28077 ft | 451 kts | 318° |
| 2026-05-05 00:16 | 11.84964 | -85.91163 | 28351 ft | 451 kts | 318° |
| 2026-05-05 00:16 | 11.87284 | -85.93256 | 28595 ft | 452 kts | 318° |
| 2026-05-05 00:16 | 11.89650 | -85.95391 | 28753 ft | 454 kts | 318° |
| 2026-05-05 00:16 | 11.92019 | -85.97530 | 28934 ft | 456 kts | 318° |
| 2026-05-05 00:17 | 11.94403 | -85.99682 | 29193 ft | 456 kts | 318° |
| 2026-05-05 00:17 | 11.96776 | -86.01826 | 29409 ft | 457 kts | 318° |
| 2026-05-05 00:17 | 11.99171 | -86.03990 | 29537 ft | 460 kts | 318° |
| 2026-05-05 00:17 | 12.01565 | -86.06153 | 29867 ft | 458 kts | 318° |
| 2026-05-05 00:18 | 12.03943 | -86.08302 | 30190 ft | 455 kts | 318° |
| 2026-05-05 00:18 | 12.06321 | -86.10452 | 30422 ft | 456 kts | 318° |
| 2026-05-05 00:18 | 12.08704 | -86.12604 | 30597 ft | 457 kts | 319° |
| 2026-05-05 00:18 | 12.11350 | -86.14393 | 30789 ft | 458 kts | 335° |
| 2026-05-05 00:19 | 12.14398 | -86.15323 | 31063 ft | 459 kts | 351° |
| 2026-05-05 00:19 | 12.17585 | -86.15461 | 31326 ft | 460 kts | 4° |
| 2026-05-05 00:19 | 12.20691 | -86.14797 | 31476 ft | 465 kts | 18° |
| 2026-05-05 00:19 | 12.23715 | -86.13614 | 31680 ft | 466 kts | 20° |
| 2026-05-05 00:20 | 12.26710 | -86.12345 | 31898 ft | 466 kts | 21° |
| 2026-05-05 00:20 | 12.29696 | -86.11051 | 32142 ft | 466 kts | 21° |
| 2026-05-05 00:20 | 12.32680 | -86.09765 | 32400 ft | 465 kts | 21° |
| 2026-05-05 00:20 | 12.35664 | -86.08496 | 32652 ft | 464 kts | 21° |
| 2026-05-05 00:21 | 12.38660 | -86.07239 | 32884 ft | 464 kts | 21° |
| 2026-05-05 00:21 | 12.41651 | -86.05995 | 33149 ft | 464 kts | 20° |
| 2026-05-05 00:21 | 12.44649 | -86.04755 | 33429 ft | 463 kts | 20° |
| 2026-05-05 00:21 | 12.47637 | -86.03522 | 33676 ft | 462 kts | 20° |
| 2026-05-05 00:22 | 12.50615 | -86.02293 | 33872 ft | 462 kts | 20° |
| 2026-05-05 00:22 | 12.56612 | -85.99817 | 33868 ft | 464 kts | 20° |
| 2026-05-05 00:23 | 12.62584 | -85.97348 | 33882 ft | 461 kts | 20° |
| 2026-05-05 00:23 | 12.68527 | -85.94888 | 33884 ft | 459 kts | 20° |
| 2026-05-05 00:24 | 12.74438 | -85.92441 | 33892 ft | 458 kts | 20° |
| 2026-05-05 00:24 | 12.80305 | -85.90009 | 33903 ft | 457 kts | 20° |
| 2026-05-05 00:25 | 12.86202 | -85.87565 | 33912 ft | 457 kts | 20° |
| 2026-05-05 00:25 | 12.92108 | -85.85116 | 33919 ft | 458 kts | 20° |
| 2026-05-05 00:26 | 12.98027 | -85.82661 | 33929 ft | 459 kts | 20° |
| 2026-05-05 00:26 | 13.03976 | -85.80192 | 33928 ft | 461 kts | 20° |
| 2026-05-05 00:27 | 13.09878 | -85.77674 | 33931 ft | 463 kts | 22° |
| 2026-05-05 00:27 | 13.15752 | -85.74942 | 33929 ft | 463 kts | 22° |
| 2026-05-05 00:28 | 13.21614 | -85.72179 | 33933 ft | 463 kts | 23° |
| 2026-05-05 00:28 | 13.27491 | -85.69439 | 33923 ft | 463 kts | 22° |
| 2026-05-05 00:29 | 13.33356 | -85.66724 | 33922 ft | 462 kts | 22° |
| 2026-05-05 00:29 | 13.39201 | -85.64016 | 33919 ft | 461 kts | 22° |
| 2026-05-05 00:30 | 13.45051 | -85.61304 | 33923 ft | 460 kts | 22° |
| 2026-05-05 00:30 | 13.50880 | -85.58599 | 33920 ft | 459 kts | 22° |
| 2026-05-05 00:31 | 13.56700 | -85.55898 | 33914 ft | 458 kts | 22° |
| 2026-05-05 00:31 | 13.62469 | -85.53219 | 33922 ft | 458 kts | 22° |
| 2026-05-05 00:32 | 13.68319 | -85.50501 | 33916 ft | 458 kts | 22° |
| 2026-05-05 00:32 | 13.74089 | -85.47819 | 33913 ft | 458 kts | 22° |
| 2026-05-05 00:33 | 13.79897 | -85.45117 | 33915 ft | 458 kts | 22° |
| 2026-05-05 00:33 | 13.85713 | -85.42410 | 33922 ft | 459 kts | 22° |
| 2026-05-05 00:34 | 13.91542 | -85.39695 | 33918 ft | 460 kts | 22° |
| 2026-05-05 00:34 | 13.97373 | -85.36978 | 33911 ft | 460 kts | 22° |
| 2026-05-05 00:35 | 14.03207 | -85.34258 | 33920 ft | 461 kts | 22° |
| 2026-05-05 00:35 | 14.09056 | -85.31533 | 33914 ft | 462 kts | 22° |
| 2026-05-05 00:36 | 14.14911 | -85.28808 | 33915 ft | 462 kts | 22° |
| 2026-05-05 00:36 | 14.20779 | -85.26074 | 33912 ft | 463 kts | 22° |
| 2026-05-05 00:37 | 14.26646 | -85.23337 | 33918 ft | 463 kts | 22° |
| 2026-05-05 00:37 | 14.32512 | -85.20600 | 33913 ft | 463 kts | 22° |
| 2026-05-05 00:38 | 14.38384 | -85.17858 | 33918 ft | 463 kts | 22° |
| 2026-05-05 00:38 | 14.44242 | -85.15121 | 33910 ft | 463 kts | 22° |
| 2026-05-05 00:39 | 14.50114 | -85.12376 | 33914 ft | 463 kts | 22° |
| 2026-05-05 00:39 | 14.55982 | -85.09631 | 33917 ft | 463 kts | 22° |
| 2026-05-05 00:40 | 14.61849 | -85.06885 | 33918 ft | 463 kts | 22° |
| 2026-05-05 00:40 | 14.67714 | -85.04139 | 33927 ft | 463 kts | 22° |
| 2026-05-05 00:41 | 14.73581 | -85.01390 | 33922 ft | 463 kts | 22° |
| 2026-05-05 00:41 | 14.79421 | -84.98652 | 33927 ft | 463 kts | 22° |
| 2026-05-05 00:42 | 14.85292 | -84.95897 | 33932 ft | 463 kts | 22° |
| 2026-05-05 00:42 | 14.91166 | -84.93140 | 33934 ft | 464 kts | 22° |
| 2026-05-05 00:43 | 14.97042 | -84.90380 | 33945 ft | 464 kts | 22° |
| 2026-05-05 00:43 | 15.02916 | -84.87619 | 33948 ft | 464 kts | 22° |
| 2026-05-05 00:44 | 15.08804 | -84.84850 | 33945 ft | 465 kts | 22° |
| 2026-05-05 00:44 | 15.14696 | -84.82078 | 33949 ft | 465 kts | 22° |
| 2026-05-05 00:45 | 15.20554 | -84.79319 | 33948 ft | 465 kts | 22° |
| 2026-05-05 00:45 | 15.26445 | -84.76543 | 33948 ft | 465 kts | 22° |
| 2026-05-05 00:46 | 15.32349 | -84.73760 | 33954 ft | 466 kts | 22° |
| 2026-05-05 00:46 | 15.38254 | -84.70974 | 33953 ft | 466 kts | 22° |
| 2026-05-05 00:47 | 15.44120 | -84.68204 | 33957 ft | 466 kts | 22° |
| 2026-05-05 00:47 | 15.50030 | -84.65413 | 33953 ft | 466 kts | 22° |
| 2026-05-05 00:48 | 15.55934 | -84.62622 | 33953 ft | 467 kts | 22° |
| 2026-05-05 00:48 | 15.61842 | -84.59826 | 33955 ft | 467 kts | 22° |
| 2026-05-05 00:49 | 15.67758 | -84.57024 | 33953 ft | 467 kts | 22° |
| 2026-05-05 00:49 | 15.73667 | -84.54224 | 33953 ft | 467 kts | 22° |
| 2026-05-05 00:50 | 15.79576 | -84.51421 | 33948 ft | 467 kts | 22° |
| 2026-05-05 00:50 | 15.85490 | -84.48615 | 33946 ft | 467 kts | 22° |
| 2026-05-05 00:51 | 15.91355 | -84.45829 | 33947 ft | 466 kts | 22° |
| 2026-05-05 00:51 | 15.97257 | -84.43024 | 33948 ft | 466 kts | 22° |
| 2026-05-05 00:52 | 16.03152 | -84.40222 | 33951 ft | 466 kts | 22° |
| 2026-05-05 00:52 | 16.09061 | -84.37421 | 33949 ft | 465 kts | 21° |
| 2026-05-05 00:53 | 16.14919 | -84.34642 | 33950 ft | 465 kts | 21° |
| 2026-05-05 00:53 | 16.20813 | -84.31843 | 33959 ft | 465 kts | 21° |
| 2026-05-05 00:54 | 16.26702 | -84.29044 | 33955 ft | 465 kts | 21° |
| 2026-05-05 00:54 | 16.32582 | -84.26247 | 33957 ft | 464 kts | 21° |
| 2026-05-05 00:55 | 16.38459 | -84.23450 | 33960 ft | 464 kts | 21° |
| 2026-05-05 00:55 | 16.44335 | -84.20651 | 33963 ft | 464 kts | 21° |
| 2026-05-05 00:56 | 16.50206 | -84.17844 | 33960 ft | 464 kts | 21° |
| 2026-05-05 00:56 | 16.56079 | -84.15030 | 33962 ft | 464 kts | 21° |
| 2026-05-05 00:57 | 16.61962 | -84.12209 | 33963 ft | 464 kts | 21° |
| 2026-05-05 00:57 | 16.67792 | -84.09413 | 33966 ft | 464 kts | 21° |
| 2026-05-05 00:58 | 16.73669 | -84.06592 | 33968 ft | 465 kts | 21° |
| 2026-05-05 00:58 | 16.79548 | -84.03768 | 33967 ft | 465 kts | 21° |
| 2026-05-05 00:59 | 16.85421 | -84.00944 | 33961 ft | 465 kts | 21° |
| 2026-05-05 00:59 | 16.91304 | -83.98115 | 33969 ft | 466 kts | 21° |
| 2026-05-05 01:00 | 16.97188 | -83.95279 | 33974 ft | 466 kts | 21° |
| 2026-05-05 01:00 | 17.02086 | -83.92914 | 33971 ft | 466 kts | 21° |
| 2026-05-05 01:01 | 17.07976 | -83.90067 | 33975 ft | 466 kts | 21° |
| 2026-05-05 01:01 | 17.13876 | -83.87214 | 33970 ft | 467 kts | 21° |
| 2026-05-05 01:02 | 17.19776 | -83.84359 | 33980 ft | 467 kts | 21° |
| 2026-05-05 01:02 | 17.25681 | -83.81500 | 33981 ft | 467 kts | 21° |
| 2026-05-05 01:03 | 17.31584 | -83.78639 | 33973 ft | 468 kts | 21° |
| 2026-05-05 01:03 | 17.37451 | -83.75794 | 33980 ft | 468 kts | 21° |
| 2026-05-05 01:04 | 17.43358 | -83.72928 | 33981 ft | 468 kts | 21° |
| 2026-05-05 01:04 | 17.52222 | -83.68622 | 33981 ft | 468 kts | 20° |
| 2026-05-05 01:05 | 17.58136 | -83.65747 | 33978 ft | 468 kts | 20° |
| 2026-05-05 01:05 | 17.64042 | -83.62874 | 33981 ft | 468 kts | 20° |
| 2026-05-05 01:06 | 17.69958 | -83.59994 | 33984 ft | 468 kts | 20° |
| 2026-05-05 01:06 | 17.75871 | -83.57114 | 33985 ft | 468 kts | 20° |
| 2026-05-05 01:07 | 17.81747 | -83.54248 | 33987 ft | 468 kts | 20° |
| 2026-05-05 01:07 | 17.87662 | -83.51362 | 33987 ft | 468 kts | 20° |
| 2026-05-05 01:08 | 17.93572 | -83.48477 | 33992 ft | 469 kts | 20° |
| 2026-05-05 01:08 | 17.99498 | -83.45581 | 33986 ft | 469 kts | 20° |
| 2026-05-05 01:09 | 18.05412 | -83.42689 | 33984 ft | 469 kts | 20° |
| 2026-05-05 01:09 | 18.11329 | -83.39794 | 33987 ft | 469 kts | 20° |
| 2026-05-05 01:10 | 18.17205 | -83.36916 | 33986 ft | 469 kts | 20° |
| 2026-05-05 01:10 | 18.23123 | -83.34016 | 33990 ft | 469 kts | 21° |
| 2026-05-05 01:11 | 18.29050 | -83.31109 | 33990 ft | 470 kts | 21° |
| 2026-05-05 01:11 | 18.34978 | -83.28199 | 33995 ft | 470 kts | 20° |
| 2026-05-05 01:12 | 18.40913 | -83.25285 | 33997 ft | 471 kts | 20° |
| 2026-05-05 01:12 | 18.46855 | -83.22363 | 33994 ft | 471 kts | 20° |
| 2026-05-05 01:13 | 18.52796 | -83.19441 | 33994 ft | 471 kts | 20° |
| 2026-05-05 01:13 | 18.58709 | -83.16529 | 33990 ft | 472 kts | 20° |
| 2026-05-05 01:14 | 18.64661 | -83.13597 | 33998 ft | 472 kts | 20° |
| 2026-05-05 01:14 | 18.70616 | -83.10660 | 33994 ft | 473 kts | 20° |
| 2026-05-05 01:15 | 18.76578 | -83.07718 | 33994 ft | 473 kts | 20° |
| 2026-05-05 01:15 | 18.82541 | -83.04773 | 33999 ft | 474 kts | 20° |
| 2026-05-05 01:16 | 18.88525 | -83.01816 | 33997 ft | 474 kts | 20° |
| 2026-05-05 01:16 | 18.94498 | -82.98861 | 33997 ft | 474 kts | 20° |
| 2026-05-05 01:17 | 19.00478 | -82.95901 | 34001 ft | 475 kts | 20° |
| 2026-05-05 01:17 | 19.06422 | -82.92956 | 33998 ft | 475 kts | 20° |
| 2026-05-05 01:18 | 19.12408 | -82.89987 | 33995 ft | 475 kts | 20° |
| 2026-05-05 01:18 | 19.18395 | -82.87016 | 33995 ft | 475 kts | 20° |
| 2026-05-05 01:19 | 19.24384 | -82.84042 | 33998 ft | 475 kts | 20° |
| 2026-05-05 01:19 | 19.30362 | -82.81071 | 34000 ft | 475 kts | 20° |
| 2026-05-05 01:20 | 19.36325 | -82.78104 | 33998 ft | 475 kts | 20° |
| 2026-05-05 01:20 | 19.42310 | -82.75124 | 33998 ft | 475 kts | 20° |
| 2026-05-05 01:21 | 19.48295 | -82.72142 | 34001 ft | 475 kts | 20° |
| 2026-05-05 01:21 | 19.54269 | -82.69164 | 33999 ft | 475 kts | 20° |
| 2026-05-05 01:22 | 19.60252 | -82.66177 | 34004 ft | 475 kts | 20° |
| 2026-05-05 01:22 | 19.66246 | -82.63184 | 34001 ft | 475 kts | 20° |
| 2026-05-05 01:23 | 19.72198 | -82.60208 | 34001 ft | 475 kts | 20° |
| 2026-05-05 01:23 | 19.78176 | -82.57217 | 34003 ft | 475 kts | 20° |
| 2026-05-05 01:24 | 19.84152 | -82.54224 | 34002 ft | 475 kts | 20° |
| 2026-05-05 01:24 | 19.90150 | -82.51218 | 34002 ft | 475 kts | 20° |
| 2026-05-05 01:25 | 19.96119 | -82.48224 | 34002 ft | 475 kts | 20° |
| 2026-05-05 01:25 | 20.02088 | -82.45227 | 34001 ft | 475 kts | 20° |
| 2026-05-05 01:26 | 20.08068 | -82.42223 | 34002 ft | 475 kts | 20° |
| 2026-05-05 01:26 | 20.14239 | -82.39942 | 34007 ft | 467 kts | 10° |
| 2026-05-05 01:27 | 20.20518 | -82.38137 | 34005 ft | 467 kts | 9° |
| 2026-05-05 01:27 | 20.26793 | -82.36306 | 34010 ft | 467 kts | 10° |
| 2026-05-05 01:28 | 20.33017 | -82.34441 | 33997 ft | 467 kts | 10° |
| 2026-05-05 01:28 | 20.39279 | -82.32550 | 34009 ft | 467 kts | 10° |
| 2026-05-05 01:29 | 20.45538 | -82.30662 | 34006 ft | 466 kts | 10° |
| 2026-05-05 01:29 | 20.51761 | -82.28657 | 34008 ft | 467 kts | 13° |
| 2026-05-05 01:30 | 20.57908 | -82.26385 | 34001 ft | 467 kts | 14° |
| 2026-05-05 01:30 | 20.64004 | -82.24101 | 34002 ft | 466 kts | 14° |
| 2026-05-05 01:31 | 20.70138 | -82.21840 | 34005 ft | 465 kts | 13° |
| 2026-05-05 01:31 | 20.76247 | -82.19611 | 34006 ft | 463 kts | 13° |
| 2026-05-05 01:32 | 20.82343 | -82.17391 | 34007 ft | 462 kts | 13° |
| 2026-05-05 01:32 | 20.88417 | -82.15177 | 34008 ft | 460 kts | 13° |
| 2026-05-05 01:33 | 20.94471 | -82.12967 | 34004 ft | 459 kts | 13° |
| 2026-05-05 01:33 | 21.00514 | -82.10759 | 34007 ft | 458 kts | 13° |
| 2026-05-05 01:34 | 21.06503 | -82.08568 | 34007 ft | 457 kts | 13° |
| 2026-05-05 01:34 | 21.12519 | -82.06367 | 34006 ft | 456 kts | 13° |
| 2026-05-05 01:35 | 21.18518 | -82.04169 | 34004 ft | 455 kts | 13° |
| 2026-05-05 01:35 | 21.24509 | -82.01972 | 34003 ft | 454 kts | 13° |
| 2026-05-05 01:36 | 21.30490 | -81.99777 | 34005 ft | 454 kts | 13° |
| 2026-05-05 01:36 | 21.36458 | -81.97585 | 34003 ft | 453 kts | 13° |
| 2026-05-05 01:37 | 21.42380 | -81.95408 | 34004 ft | 453 kts | 13° |
| 2026-05-05 01:37 | 21.48336 | -81.93216 | 34004 ft | 452 kts | 13° |
| 2026-05-05 01:38 | 21.54286 | -81.91026 | 34004 ft | 451 kts | 13° |
| 2026-05-05 01:38 | 21.60223 | -81.88837 | 34007 ft | 451 kts | 13° |
| 2026-05-05 01:39 | 21.66166 | -81.86645 | 34002 ft | 450 kts | 12° |
| 2026-05-05 01:39 | 21.72091 | -81.84458 | 34004 ft | 450 kts | 12° |
| 2026-05-05 01:40 | 21.77965 | -81.82287 | 34004 ft | 449 kts | 12° |
| 2026-05-05 01:40 | 21.83881 | -81.80099 | 34002 ft | 449 kts | 12° |
| 2026-05-05 01:41 | 21.89790 | -81.77912 | 34002 ft | 448 kts | 12° |
| 2026-05-05 01:41 | 21.95677 | -81.75731 | 34001 ft | 448 kts | 12° |
| 2026-05-05 01:42 | 22.01567 | -81.73547 | 34003 ft | 448 kts | 12° |
| 2026-05-05 01:42 | 22.07475 | -81.71354 | 34003 ft | 448 kts | 12° |
| 2026-05-05 01:43 | 22.13319 | -81.69183 | 34008 ft | 448 kts | 12° |
| 2026-05-05 01:43 | 22.19222 | -81.66988 | 34003 ft | 448 kts | 12° |
| 2026-05-05 01:44 | 22.25111 | -81.64797 | 34004 ft | 448 kts | 12° |
| 2026-05-05 01:44 | 22.31006 | -81.62601 | 34005 ft | 447 kts | 12° |
| 2026-05-05 01:45 | 22.36892 | -81.60407 | 34003 ft | 447 kts | 12° |
| 2026-05-05 01:45 | 22.42743 | -81.58224 | 34004 ft | 447 kts | 12° |
| 2026-05-05 01:46 | 22.48623 | -81.56027 | 34005 ft | 447 kts | 12° |
| 2026-05-05 01:46 | 22.54497 | -81.53831 | 34003 ft | 446 kts | 12° |
| 2026-05-05 01:47 | 22.60360 | -81.51638 | 34009 ft | 446 kts | 12° |
| 2026-05-05 01:47 | 22.66230 | -81.49439 | 34004 ft | 445 kts | 12° |
| 2026-05-05 01:48 | 22.72085 | -81.47245 | 34003 ft | 445 kts | 12° |
| 2026-05-05 01:48 | 22.76947 | -81.45421 | 34005 ft | 444 kts | 12° |
| 2026-05-05 01:49 | 22.82783 | -81.43230 | 34000 ft | 444 kts | 12° |
| 2026-05-05 01:49 | 22.88617 | -81.41038 | 33995 ft | 443 kts | 12° |
| 2026-05-05 01:50 | 22.94442 | -81.38846 | 34001 ft | 443 kts | 12° |
| 2026-05-05 01:50 | 23.00261 | -81.36656 | 33992 ft | 443 kts | 12° |
| 2026-05-05 01:51 | 23.06084 | -81.34461 | 33999 ft | 442 kts | 11° |
| 2026-05-05 01:51 | 23.11863 | -81.32282 | 33995 ft | 442 kts | 11° |
| 2026-05-05 01:52 | 23.17673 | -81.30089 | 34000 ft | 442 kts | 11° |
| 2026-05-05 01:52 | 23.23481 | -81.27894 | 34000 ft | 441 kts | 11° |
| 2026-05-05 01:53 | 23.29293 | -81.25696 | 34001 ft | 441 kts | 11° |
| 2026-05-05 01:53 | 23.35094 | -81.23500 | 34012 ft | 441 kts | 11° |
| 2026-05-05 01:54 | 23.40893 | -81.21303 | 34003 ft | 441 kts | 11° |
| 2026-05-05 01:54 | 23.46683 | -81.19107 | 34005 ft | 441 kts | 11° |
| 2026-05-05 01:55 | 23.52433 | -81.16924 | 34004 ft | 441 kts | 11° |
| 2026-05-05 01:55 | 23.58272 | -81.15017 | 34012 ft | 436 kts | 7° |
| 2026-05-05 01:56 | 23.64147 | -81.13325 | 34006 ft | 436 kts | 7° |
| 2026-05-05 01:56 | 23.70015 | -81.11620 | 34012 ft | 437 kts | 7° |
| 2026-05-05 01:57 | 23.75888 | -81.09876 | 33544 ft | 437 kts | 7° |
| 2026-05-05 01:57 | 23.78797 | -81.09000 | 33097 ft | 431 kts | 8° |
| 2026-05-05 01:57 | 23.81674 | -81.08130 | 32680 ft | 426 kts | 8° |
| 2026-05-05 01:58 | 23.84517 | -81.07271 | 32252 ft | 422 kts | 8° |
| 2026-05-05 01:58 | 23.87333 | -81.06421 | 31824 ft | 418 kts | 8° |
| 2026-05-05 01:58 | 23.90124 | -81.05579 | 31406 ft | 414 kts | 8° |
| 2026-05-05 01:58 | 23.92893 | -81.04744 | 30990 ft | 411 kts | 8° |
| 2026-05-05 01:59 | 23.95599 | -81.03928 | 30579 ft | 408 kts | 8° |
| 2026-05-05 01:59 | 23.98333 | -81.03103 | 30176 ft | 404 kts | 8° |
| 2026-05-05 01:59 | 24.01037 | -81.02287 | 29711 ft | 401 kts | 8° |
| 2026-05-05 01:59 | 24.03718 | -81.01478 | 29250 ft | 398 kts | 8° |
| 2026-05-05 02:00 | 24.06379 | -81.00673 | 28827 ft | 394 kts | 8° |
| 2026-05-05 02:00 | 24.09008 | -80.99878 | 28398 ft | 390 kts | 8° |
| 2026-05-05 02:00 | 24.11614 | -80.99090 | 27987 ft | 387 kts | 8° |
| 2026-05-05 02:00 | 24.14208 | -80.98305 | 27568 ft | 384 kts | 8° |
| 2026-05-05 02:01 | 24.16740 | -80.97539 | 27169 ft | 381 kts | 8° |
| 2026-05-05 02:01 | 24.19288 | -80.96768 | 26769 ft | 378 kts | 8° |
| 2026-05-05 02:01 | 24.21816 | -80.96003 | 26368 ft | 376 kts | 8° |
| 2026-05-05 02:01 | 24.24334 | -80.95240 | 25980 ft | 373 kts | 8° |
| 2026-05-05 02:02 | 24.26833 | -80.94483 | 25591 ft | 372 kts | 7° |
| 2026-05-05 02:02 | 24.29323 | -80.93729 | 25202 ft | 370 kts | 7° |
| 2026-05-05 02:02 | 24.31800 | -80.92977 | 24811 ft | 369 kts | 7° |
| 2026-05-05 02:02 | 24.34273 | -80.92228 | 24414 ft | 368 kts | 7° |
| 2026-05-05 02:03 | 24.36743 | -80.91478 | 24016 ft | 368 kts | 7° |
| 2026-05-05 02:03 | 24.39210 | -80.90730 | 23619 ft | 368 kts | 7° |
| 2026-05-05 02:03 | 24.41674 | -80.89982 | 23177 ft | 367 kts | 7° |
| 2026-05-05 02:03 | 24.44101 | -80.89244 | 22765 ft | 365 kts | 8° |
| 2026-05-05 02:04 | 24.46546 | -80.88499 | 22373 ft | 363 kts | 8° |
| 2026-05-05 02:04 | 24.48975 | -80.87760 | 21982 ft | 361 kts | 8° |
| 2026-05-05 02:04 | 24.51392 | -80.87024 | 21608 ft | 359 kts | 8° |
| 2026-05-05 02:04 | 24.53797 | -80.86291 | 21232 ft | 358 kts | 8° |
| 2026-05-05 02:05 | 24.56196 | -80.85560 | 20856 ft | 356 kts | 8° |
| 2026-05-05 02:05 | 24.58584 | -80.84832 | 20486 ft | 355 kts | 8° |
| 2026-05-05 02:05 | 24.60963 | -80.84108 | 20113 ft | 354 kts | 8° |
| 2026-05-05 02:05 | 24.63347 | -80.83382 | 19747 ft | 356 kts | 8° |
| 2026-05-05 02:06 | 24.65743 | -80.82653 | 19352 ft | 359 kts | 8° |
| 2026-05-05 02:06 | 24.68171 | -80.81916 | 18975 ft | 366 kts | 8° |
| 2026-05-05 02:06 | 24.70645 | -80.81164 | 18571 ft | 370 kts | 8° |
| 2026-05-05 02:06 | 24.73129 | -80.80405 | 18152 ft | 370 kts | 9° |
| 2026-05-05 02:07 | 24.75605 | -80.79646 | 17726 ft | 368 kts | 9° |
| 2026-05-05 02:07 | 24.78066 | -80.78890 | 17323 ft | 366 kts | 9° |
| 2026-05-05 02:07 | 24.80503 | -80.78142 | 16937 ft | 364 kts | 9° |
| 2026-05-05 02:07 | 24.82914 | -80.77403 | 16558 ft | 361 kts | 9° |
| 2026-05-05 02:08 | 24.85328 | -80.76663 | 16177 ft | 359 kts | 9° |
| 2026-05-05 02:08 | 24.87739 | -80.75924 | 15805 ft | 357 kts | 9° |
| 2026-05-05 02:08 | 24.90126 | -80.75193 | 15430 ft | 355 kts | 9° |
| 2026-05-05 02:08 | 24.92501 | -80.74465 | 15060 ft | 353 kts | 9° |
| 2026-05-05 02:09 | 24.94871 | -80.73739 | 14691 ft | 352 kts | 10° |
| 2026-05-05 02:09 | 24.97217 | -80.73020 | 14308 ft | 351 kts | 10° |
| 2026-05-05 02:09 | 24.99570 | -80.72298 | 13934 ft | 350 kts | 10° |
| 2026-05-05 02:09 | 25.01915 | -80.71579 | 13520 ft | 349 kts | 10° |
| 2026-05-05 02:10 | 25.04246 | -80.70863 | 13122 ft | 347 kts | 11° |
| 2026-05-05 02:10 | 25.06566 | -80.70150 | 12739 ft | 345 kts | 11° |
| 2026-05-05 02:10 | 25.08871 | -80.69441 | 12366 ft | 343 kts | 11° |
| 2026-05-05 02:10 | 25.11169 | -80.68735 | 11993 ft | 341 kts | 11° |
| 2026-05-05 02:11 | 25.13446 | -80.68034 | 11624 ft | 339 kts | 11° |
| 2026-05-05 02:11 | 25.15706 | -80.67339 | 11262 ft | 337 kts | 11° |
| 2026-05-05 02:11 | 25.17957 | -80.66647 | 10901 ft | 335 kts | 12° |
| 2026-05-05 02:11 | 25.20201 | -80.65956 | 10541 ft | 333 kts | 12° |
| 2026-05-05 02:12 | 25.22409 | -80.65274 | 10378 ft | 325 kts | 12° |
| 2026-05-05 02:12 | 25.26616 | -80.63975 | 10086 ft | 308 kts | 12° |
| 2026-05-05 02:12 | 25.28667 | -80.63342 | 9852 ft | 305 kts | 12° |
| 2026-05-05 02:13 | 25.30703 | -80.62715 | 9534 ft | 303 kts | 12° |
| 2026-05-05 02:13 | 25.32727 | -80.62092 | 9230 ft | 301 kts | 12° |
| 2026-05-05 02:13 | 25.34734 | -80.61553 | 8901 ft | 291 kts | 2° |
| 2026-05-05 02:13 | 25.36718 | -80.61528 | 8633 ft | 278 kts | 354° |
| 2026-05-05 02:14 | 25.38618 | -80.61622 | 8350 ft | 270 kts | 353° |
| 2026-05-05 02:14 | 25.40467 | -80.61730 | 8092 ft | 262 kts | 353° |
| 2026-05-05 02:14 | 25.42260 | -80.61840 | 7840 ft | 254 kts | 353° |
| 2026-05-05 02:14 | 25.43998 | -80.61950 | 7608 ft | 246 kts | 353° |
| 2026-05-05 02:15 | 25.45686 | -80.62060 | 7376 ft | 239 kts | 353° |
| 2026-05-05 02:15 | 25.47329 | -80.62169 | 7173 ft | 235 kts | 353° |
| 2026-05-05 02:15 | 25.48963 | -80.62282 | 6961 ft | 234 kts | 353° |
| 2026-05-05 02:15 | 25.50578 | -80.62399 | 6888 ft | 229 kts | 353° |
| 2026-05-05 02:16 | 25.52194 | -80.62520 | 6969 ft | 236 kts | 353° |
| 2026-05-05 02:16 | 25.53855 | -80.62648 | 7009 ft | 241 kts | 353° |
| 2026-05-05 02:16 | 25.55512 | -80.62775 | 6994 ft | 240 kts | 353° |
| 2026-05-05 02:16 | 25.57163 | -80.62903 | 7011 ft | 237 kts | 353° |
| 2026-05-05 02:17 | 25.58809 | -80.63033 | 6994 ft | 238 kts | 353° |
| 2026-05-05 02:17 | 25.60460 | -80.63165 | 6977 ft | 237 kts | 353° |
| 2026-05-05 02:17 | 25.62096 | -80.63295 | 6819 ft | 235 kts | 353° |
| 2026-05-05 02:17 | 25.63734 | -80.63429 | 6547 ft | 236 kts | 353° |
| 2026-05-05 02:18 | 25.65369 | -80.63570 | 6308 ft | 235 kts | 353° |
| 2026-05-05 02:18 | 25.67002 | -80.63717 | 6066 ft | 235 kts | 353° |
| 2026-05-05 02:18 | 25.68626 | -80.63872 | 5833 ft | 233 kts | 353° |
| 2026-05-05 02:18 | 25.70236 | -80.64031 | 5592 ft | 233 kts | 353° |
| 2026-05-05 02:19 | 25.71851 | -80.64195 | 5340 ft | 232 kts | 353° |
| 2026-05-05 02:19 | 25.73450 | -80.64056 | 5070 ft | 233 kts | 21° |
| 2026-05-05 02:19 | 25.74754 | -80.63028 | 4849 ft | 232 kts | 49° |
| 2026-05-05 02:19 | 25.75759 | -80.61644 | 4635 ft | 230 kts | 52° |
| 2026-05-05 02:20 | 25.76714 | -80.60257 | 4414 ft | 228 kts | 55° |
| 2026-05-05 02:20 | 25.77300 | -80.58655 | 4178 ft | 225 kts | 81° |
| 2026-05-05 02:20 | 25.77512 | -80.56938 | 4061 ft | 225 kts | 84° |
| 2026-05-05 02:20 | 25.77645 | -80.55212 | 4009 ft | 223 kts | 86° |
| 2026-05-05 02:21 | 25.77728 | -80.53496 | 3836 ft | 226 kts | 88° |
| 2026-05-05 02:21 | 25.77798 | -80.51742 | 3565 ft | 228 kts | 88° |
| 2026-05-05 02:21 | 25.77866 | -80.49974 | 3275 ft | 230 kts | 88° |
| 2026-05-05 02:21 | 25.77936 | -80.48194 | 2973 ft | 232 kts | 87° |
| 2026-05-05 02:22 | 25.78007 | -80.46403 | 2677 ft | 234 kts | 87° |
| 2026-05-05 02:22 | 25.78079 | -80.44604 | 2378 ft | 233 kts | 87° |
| 2026-05-05 02:22 | 25.78150 | -80.42827 | 2074 ft | 228 kts | 87° |
| 2026-05-05 02:22 | 25.78219 | -80.41104 | 1785 ft | 220 kts | 87° |
| 2026-05-05 02:23 | 25.78286 | -80.39439 | 1492 ft | 212 kts | 87° |
| 2026-05-05 02:23 | 25.78351 | -80.37830 | 1218 ft | 204 kts | 87° |
| 2026-05-05 02:23 | 25.78414 | -80.36284 | 941 ft | 196 kts | 88° |
| 2026-05-05 02:23 | 25.78473 | -80.34823 | 705 ft | 184 kts | 86° |
| 2026-05-05 02:24 | 25.78529 | -80.33456 | 485 ft | 171 kts | 86° |
| 2026-05-05 02:24 | 25.78582 | -80.32201 | 256 ft | 155 kts | 85° |
| 2026-05-05 02:24 | 25.78632 | -80.31039 | 39 ft | 148 kts | 85° |
| 2026-05-05 02:24 | 25.78675 | -80.30014 | 15 ft | 106 kts | 88° |
| 2026-05-05 02:25 | 25.78698 | -80.29448 | 17 ft | 39 kts | 86° |
| 2026-05-05 02:25 | 25.78736 | -80.29232 | 18 ft | 20 kts | 59° |
| 2026-05-05 02:25 | 25.78802 | -80.29170 | 16 ft | 0 kts | 17° |
| 2026-05-05 02:26 | 25.78826 | -80.29164 | 15 ft | 10 kts | 8° |
| 2026-05-05 02:26 | 25.78898 | -80.29196 | 14 ft | 13 kts | 281° |
| 2026-05-05 02:27 | 25.78896 | -80.29306 | 15 ft | 18 kts | 268° |
| 2026-05-05 02:27 | 25.78890 | -80.29451 | 19 ft | 19 kts | 267° |
| 2026-05-05 02:27 | 25.78884 | -80.29594 | 19 ft | 19 kts | 267° |
| 2026-05-05 02:27 | 25.78878 | -80.29743 | 18 ft | 19 kts | 268° |
| 2026-05-05 02:28 | 25.78873 | -80.29889 | 20 ft | 19 kts | 268° |
| 2026-05-05 02:28 | 25.78867 | -80.30030 | 20 ft | 16 kts | 267° |
| 2026-05-05 02:28 | 25.78915 | -80.30119 | 18 ft | 15 kts | 346° |
| 2026-05-05 02:28 | 25.79015 | -80.30125 | 20 ft | 14 kts | 353° |
| 2026-05-05 02:29 | 25.79050 | -80.30197 | 20 ft | 11 kts | 266° |
| 2026-05-05 02:29 | 25.79050 | -80.30209 | 20 ft | 0 kts | 267° |